Terminal Aerodrome Forecast
Issued by NWS Chicago, IL

Home | Current Version | Previous Version | Graphics & Text | Print | Product List | Glossary On
Versions: 1 2 3 4 5 6 7 8 9 10 11 12 13 14 15 16 17 18 19 20 21 22 23
000
FTUS43 KLOT 032112 AAA
TAFRFD
TAF AMD
KRFD 032112Z 0321/0418 26013G21KT P6SM SCT060 BKN090
     FM040300 24011KT P6SM VCSH SCT040 BKN060
      TEMPO 0404/0407 4SM SHRA BKN010 OVC040
     FM040700 35015G22KT P6SM SCT007 BKN012
     FM041600 35017G24KT P6SM VCSH OVC030=

USA.gov is the U.S. government's official web portal to all federal, state and local government web resources and services.